sensor_id;sensor_type;location;lat;lon;timestamp;P1;durP1;ratioP1;P2;durP2;ratioP2
21903;SDS011;11116;51.554;7.812;2022-08-01T00:02:21;17.42;;;15.32;;
21903;SDS011;11116;51.554;7.812;2022-08-01T00:04:48;20.90;;;15.85;;
21903;SDS011;11116;51.554;7.812;2022-08-01T00:07:14;24.65;;;16.00;;
21903;SDS011;11116;51.554;7.812;2022-08-01T00:09:43;23.45;;;16.30;;
21903;SDS011;11116;51.554;7.812;2022-08-01T00:12:10;21.00;;;16.83;;
21903;SDS011;11116;51.554;7.812;2022-08-01T00:14:37;22.45;;;17.98;;
21903;SDS011;11116;51.554;7.812;2022-08-01T00:17:04;25.35;;;18.13;;
21903;SDS011;11116;51.554;7.812;2022-08-01T00:19:31;22.10;;;17.08;;
21903;SDS011;11116;51.554;7.812;2022-08-01T00:21:58;22.48;;;17.40;;
21903;SDS011;11116;51.554;7.812;2022-08-01T00:24:25;24.25;;;16.88;;
21903;SDS011;11116;51.554;7.812;2022-08-01T00:26:53;23.38;;;16.75;;
21903;SDS011;11116;51.554;7.812;2022-08-01T00:29:20;23.23;;;17.42;;
21903;SDS011;11116;51.554;7.812;2022-08-01T00:31:47;22.85;;;18.10;;
21903;SDS011;11116;51.554;7.812;2022-08-01T00:34:14;23.50;;;18.40;;
21903;SDS011;11116;51.554;7.812;2022-08-01T00:36:41;25.55;;;18.50;;
21903;SDS011;11116;51.554;7.812;2022-08-01T00:39:08;20.85;;;18.65;;
21903;SDS011;11116;51.554;7.812;2022-08-01T00:41:35;23.77;;;17.30;;
21903;SDS011;11116;51.554;7.812;2022-08-01T00:44:04;24.95;;;19.17;;
21903;SDS011;11116;51.554;7.812;2022-08-01T00:46:32;22.85;;;18.92;;
21903;SDS011;11116;51.554;7.812;2022-08-01T00:48:59;22.67;;;19.83;;
21903;SDS011;11116;51.554;7.812;2022-08-01T00:51:26;25.85;;;19.70;;
21903;SDS011;11116;51.554;7.812;2022-08-01T00:53:54;25.25;;;20.02;;
21903;SDS011;11116;51.554;7.812;2022-08-01T00:56:22;23.70;;;20.73;;
21903;SDS011;11116;51.554;7.812;2022-08-01T00:58:51;23.25;;;20.85;;
21903;SDS011;11116;51.554;7.812;2022-08-01T01:01:20;26.38;;;20.67;;
21903;SDS011;11116;51.554;7.812;2022-08-01T01:03:47;23.20;;;20.63;;
21903;SDS011;11116;51.554;7.812;2022-08-01T01:06:18;26.55;;;21.33;;
21903;SDS011;11116;51.554;7.812;2022-08-01T01:08:53;25.05;;;21.65;;
21903;SDS011;11116;51.554;7.812;2022-08-01T01:11:35;24.90;;;20.20;;
21903;SDS011;11116;51.554;7.812;2022-08-01T01:14:13;24.38;;;21.88;;
21903;SDS011;11116;51.554;7.812;2022-08-01T01:16:49;22.27;;;19.88;;
21903;SDS011;11116;51.554;7.812;2022-08-01T01:19:20;23.98;;;20.75;;
21903;SDS011;11116;51.554;7.812;2022-08-01T01:21:57;25.63;;;20.42;;
21903;SDS011;11116;51.554;7.812;2022-08-01T01:24:45;22.83;;;20.42;;
21903;SDS011;11116;51.554;7.812;2022-08-01T01:27:24;22.33;;;19.88;;
21903;SDS011;11116;51.554;7.812;2022-08-01T01:30:04;22.90;;;20.42;;
21903;SDS011;11116;51.554;7.812;2022-08-01T01:32:32;26.63;;;22.05;;
21903;SDS011;11116;51.554;7.812;2022-08-01T01:35:02;23.25;;;20.17;;
21903;SDS011;11116;51.554;7.812;2022-08-01T01:37:34;28.45;;;20.17;;
21903;SDS011;11116;51.554;7.812;2022-08-01T01:40:06;23.05;;;20.33;;
21903;SDS011;11116;51.554;7.812;2022-08-01T01:42:36;28.30;;;20.60;;
21903;SDS011;11116;51.554;7.812;2022-08-01T01:45:06;26.83;;;21.23;;
21903;SDS011;11116;51.554;7.812;2022-08-01T01:47:34;26.23;;;21.38;;
21903;SDS011;11116;51.554;7.812;2022-08-01T01:50:05;27.65;;;19.95;;
21903;SDS011;11116;51.554;7.812;2022-08-01T01:52:34;23.48;;;20.92;;
21903;SDS011;11116;51.554;7.812;2022-08-01T01:55:04;27.02;;;22.10;;
21903;SDS011;11116;51.554;7.812;2022-08-01T01:57:33;29.23;;;23.65;;
21903;SDS011;11116;51.554;7.812;2022-08-01T02:00:04;26.67;;;22.45;;
21903;SDS011;11116;51.554;7.812;2022-08-01T02:02:34;27.27;;;23.27;;
21903;SDS011;11116;51.554;7.812;2022-08-01T02:05:03;28.17;;;24.33;;
21903;SDS011;11116;51.554;7.812;2022-08-01T02:07:31;28.17;;;23.35;;
21903;SDS011;11116;51.554;7.812;2022-08-01T02:09:59;28.63;;;24.10;;
21903;SDS011;11116;51.554;7.812;2022-08-01T02:12:28;27.52;;;23.17;;
21903;SDS011;11116;51.554;7.812;2022-08-01T02:14:59;27.00;;;21.77;;
21903;SDS011;11116;51.554;7.812;2022-08-01T02:17:30;25.05;;;22.35;;
21903;SDS011;11116;51.554;7.812;2022-08-01T02:19:58;28.63;;;23.45;;
21903;SDS011;11116;51.554;7.812;2022-08-01T02:22:26;28.92;;;21.17;;
21903;SDS011;11116;51.554;7.812;2022-08-01T02:24:59;29.02;;;23.65;;
21903;SDS011;11116;51.554;7.812;2022-08-01T02:27:31;30.20;;;23.52;;
21903;SDS011;11116;51.554;7.812;2022-08-01T02:30:04;29.15;;;22.48;;
21903;SDS011;11116;51.554;7.812;2022-08-01T02:32:36;31.17;;;24.80;;
21903;SDS011;11116;51.554;7.812;2022-08-01T02:35:05;33.63;;;24.77;;
21903;SDS011;11116;51.554;7.812;2022-08-01T02:37:36;35.00;;;24.60;;
21903;SDS011;11116;51.554;7.812;2022-08-01T02:40:05;29.05;;;23.13;;
21903;SDS011;11116;51.554;7.812;2022-08-01T02:42:37;27.80;;;23.13;;
21903;SDS011;11116;51.554;7.812;2022-08-01T02:45:08;30.95;;;24.60;;
21903;SDS011;11116;51.554;7.812;2022-08-01T02:47:38;30.73;;;23.55;;
21903;SDS011;11116;51.554;7.812;2022-08-01T02:50:09;32.22;;;23.95;;
21903;SDS011;11116;51.554;7.812;2022-08-01T02:52:36;30.50;;;24.00;;
21903;SDS011;11116;51.554;7.812;2022-08-01T02:55:06;31.00;;;24.23;;
21903;SDS011;11116;51.554;7.812;2022-08-01T02:57:35;31.15;;;24.27;;
21903;SDS011;11116;51.554;7.812;2022-08-01T03:00:04;32.13;;;23.70;;
21903;SDS011;11116;51.554;7.812;2022-08-01T03:02:32;29.45;;;23.80;;
21903;SDS011;11116;51.554;7.812;2022-08-01T03:05:04;31.92;;;23.00;;
21903;SDS011;11116;51.554;7.812;2022-08-01T03:07:33;28.45;;;22.33;;
21903;SDS011;11116;51.554;7.812;2022-08-01T03:10:02;29.75;;;22.10;;
21903;SDS011;11116;51.554;7.812;2022-08-01T03:12:31;29.50;;;22.98;;
21903;SDS011;11116;51.554;7.812;2022-08-01T03:15:00;34.17;;;23.30;;
21903;SDS011;11116;51.554;7.812;2022-08-01T03:17:30;27.67;;;20.92;;
21903;SDS011;11116;51.554;7.812;2022-08-01T03:19:59;25.52;;;19.50;;
21903;SDS011;11116;51.554;7.812;2022-08-01T03:22:31;19.45;;;15.02;;
21903;SDS011;11116;51.554;7.812;2022-08-01T03:25:00;18.23;;;14.70;;
21903;SDS011;11116;51.554;7.812;2022-08-01T03:27:28;18.58;;;13.40;;
21903;SDS011;11116;51.554;7.812;2022-08-01T03:29:56;15.60;;;11.98;;
21903;SDS011;11116;51.554;7.812;2022-08-01T03:32:28;13.98;;;10.70;;
21903;SDS011;11116;51.554;7.812;2022-08-01T03:34:57;13.10;;;9.77;;
21903;SDS011;11116;51.554;7.812;2022-08-01T03:37:26;13.32;;;9.23;;
21903;SDS011;11116;51.554;7.812;2022-08-01T03:39:57;9.93;;;8.35;;
21903;SDS011;11116;51.554;7.812;2022-08-01T03:42:28;15.50;;;9.52;;
21903;SDS011;11116;51.554;7.812;2022-08-01T03:45:01;13.20;;;9.95;;
21903;SDS011;11116;51.554;7.812;2022-08-01T03:47:31;12.05;;;9.57;;
21903;SDS011;11116;51.554;7.812;2022-08-01T03:50:00;17.67;;;11.35;;
21903;SDS011;11116;51.554;7.812;2022-08-01T03:52:30;12.85;;;10.68;;
21903;SDS011;11116;51.554;7.812;2022-08-01T03:55:01;14.68;;;9.50;;
21903;SDS011;11116;51.554;7.812;2022-08-01T03:57:32;17.15;;;11.35;;
21903;SDS011;11116;51.554;7.812;2022-08-01T04:00:00;17.60;;;11.80;;
21903;SDS011;11116;51.554;7.812;2022-08-01T04:02:37;13.57;;;10.73;;
21903;SDS011;11116;51.554;7.812;2022-08-01T04:05:05;15.57;;;11.20;;
21903;SDS011;11116;51.554;7.812;2022-08-01T04:07:34;16.92;;;11.80;;
21903;SDS011;11116;51.554;7.812;2022-08-01T04:10:02;16.02;;;11.32;;
21903;SDS011;11116;51.554;7.812;2022-08-01T04:12:30;13.00;;;10.68;;
21903;SDS011;11116;51.554;7.812;2022-08-01T04:14:57;15.35;;;11.43;;
21903;SDS011;11116;51.554;7.812;2022-08-01T04:17:24;14.60;;;11.68;;
21903;SDS011;11116;51.554;7.812;2022-08-01T04:19:51;18.60;;;12.02;;
21903;SDS011;11116;51.554;7.812;2022-08-01T04:22:18;16.95;;;12.15;;
21903;SDS011;11116;51.554;7.812;2022-08-01T04:24:47;17.33;;;12.48;;
21903;SDS011;11116;51.554;7.812;2022-08-01T04:27:21;15.82;;;11.63;;
21903;SDS011;11116;51.554;7.812;2022-08-01T04:29:50;17.33;;;11.98;;
21903;SDS011;11116;51.554;7.812;2022-08-01T04:32:21;17.92;;;12.32;;
21903;SDS011;11116;51.554;7.812;2022-08-01T04:34:49;15.32;;;12.27;;
21903;SDS011;11116;51.554;7.812;2022-08-01T04:37:16;16.90;;;12.05;;
21903;SDS011;11116;51.554;7.812;2022-08-01T04:39:44;18.33;;;12.15;;
21903;SDS011;11116;51.554;7.812;2022-08-01T04:42:16;16.73;;;11.18;;
21903;SDS011;11116;51.554;7.812;2022-08-01T04:44:44;17.88;;;12.15;;
21903;SDS011;11116;51.554;7.812;2022-08-01T04:47:11;19.23;;;12.82;;
21903;SDS011;11116;51.554;7.812;2022-08-01T04:49:39;17.55;;;12.57;;
21903;SDS011;11116;51.554;7.812;2022-08-01T04:52:06;16.88;;;13.15;;
21903;SDS011;11116;51.554;7.812;2022-08-01T04:54:34;17.13;;;12.63;;
21903;SDS011;11116;51.554;7.812;2022-08-01T04:57:04;21.35;;;13.07;;
21903;SDS011;11116;51.554;7.812;2022-08-01T04:59:32;17.77;;;13.18;;
21903;SDS011;11116;51.554;7.812;2022-08-01T05:02:07;19.45;;;12.30;;
21903;SDS011;11116;51.554;7.812;2022-08-01T05:04:35;14.07;;;11.30;;
21903;SDS011;11116;51.554;7.812;2022-08-01T05:07:03;13.88;;;11.18;;
21903;SDS011;11116;51.554;7.812;2022-08-01T05:09:31;15.77;;;12.07;;
21903;SDS011;11116;51.554;7.812;2022-08-01T05:11:58;13.35;;;10.63;;
21903;SDS011;11116;51.554;7.812;2022-08-01T05:14:28;17.02;;;12.55;;
21903;SDS011;11116;51.554;7.812;2022-08-01T05:16:57;15.55;;;12.52;;
21903;SDS011;11116;51.554;7.812;2022-08-01T05:19:24;13.77;;;11.68;;
21903;SDS011;11116;51.554;7.812;2022-08-01T05:21:51;12.23;;;10.93;;
21903;SDS011;11116;51.554;7.812;2022-08-01T05:24:18;13.23;;;11.02;;
21903;SDS011;11116;51.554;7.812;2022-08-01T05:26:45;14.85;;;10.80;;
21903;SDS011;11116;51.554;7.812;2022-08-01T05:29:12;11.32;;;9.13;;
21903;SDS011;11116;51.554;7.812;2022-08-01T05:31:40;13.07;;;9.38;;
21903;SDS011;11116;51.554;7.812;2022-08-01T05:34:07;11.38;;;9.13;;
21903;SDS011;11116;51.554;7.812;2022-08-01T05:36:34;14.00;;;9.38;;
21903;SDS011;11116;51.554;7.812;2022-08-01T05:39:02;11.90;;;10.00;;
21903;SDS011;11116;51.554;7.812;2022-08-01T05:41:30;12.77;;;9.30;;
21903;SDS011;11116;51.554;7.812;2022-08-01T05:43:56;12.65;;;9.18;;
21903;SDS011;11116;51.554;7.812;2022-08-01T05:46:23;13.30;;;9.27;;
21903;SDS011;11116;51.554;7.812;2022-08-01T05:48:52;11.52;;;9.52;;
21903;SDS011;11116;51.554;7.812;2022-08-01T05:51:18;11.63;;;9.43;;
21903;SDS011;11116;51.554;7.812;2022-08-01T05:53:45;12.80;;;10.07;;
21903;SDS011;11116;51.554;7.812;2022-08-01T05:56:12;13.57;;;9.40;;
21903;SDS011;11116;51.554;7.812;2022-08-01T05:58:39;12.70;;;9.55;;
21903;SDS011;11116;51.554;7.812;2022-08-01T06:01:07;11.00;;;9.57;;
21903;SDS011;11116;51.554;7.812;2022-08-01T06:03:33;11.35;;;9.70;;
21903;SDS011;11116;51.554;7.812;2022-08-01T06:06:02;12.23;;;9.68;;
21903;SDS011;11116;51.554;7.812;2022-08-01T06:08:30;13.32;;;9.02;;
21903;SDS011;11116;51.554;7.812;2022-08-01T06:10:57;12.98;;;8.95;;
21903;SDS011;11116;51.554;7.812;2022-08-01T06:13:24;15.30;;;8.75;;
21903;SDS011;11116;51.554;7.812;2022-08-01T06:15:53;10.43;;;8.98;;
21903;SDS011;11116;51.554;7.812;2022-08-01T06:18:20;12.13;;;7.78;;
21903;SDS011;11116;51.554;7.812;2022-08-01T06:20:47;10.35;;;7.50;;
21903;SDS011;11116;51.554;7.812;2022-08-01T06:23:15;11.75;;;8.23;;
21903;SDS011;11116;51.554;7.812;2022-08-01T06:25:42;10.82;;;8.52;;
21903;SDS011;11116;51.554;7.812;2022-08-01T06:28:09;12.93;;;9.02;;
21903;SDS011;11116;51.554;7.812;2022-08-01T06:30:36;12.15;;;8.70;;
21903;SDS011;11116;51.554;7.812;2022-08-01T06:33:03;9.60;;;7.75;;
21903;SDS011;11116;51.554;7.812;2022-08-01T06:35:30;9.60;;;8.35;;
21903;SDS011;11116;51.554;7.812;2022-08-01T06:37:57;9.40;;;8.40;;
21903;SDS011;11116;51.554;7.812;2022-08-01T06:40:25;14.75;;;10.00;;
21903;SDS011;11116;51.554;7.812;2022-08-01T06:42:52;13.43;;;10.05;;
21903;SDS011;11116;51.554;7.812;2022-08-01T06:45:19;14.48;;;10.18;;
21903;SDS011;11116;51.554;7.812;2022-08-01T06:47:47;11.63;;;9.98;;
21903;SDS011;11116;51.554;7.812;2022-08-01T06:50:14;10.73;;;9.27;;
21903;SDS011;11116;51.554;7.812;2022-08-01T06:52:41;11.75;;;9.40;;
21903;SDS011;11116;51.554;7.812;2022-08-01T06:55:09;12.50;;;9.05;;
21903;SDS011;11116;51.554;7.812;2022-08-01T06:57:39;10.43;;;8.93;;
21903;SDS011;11116;51.554;7.812;2022-08-01T07:00:12;10.75;;;9.10;;
21903;SDS011;11116;51.554;7.812;2022-08-01T07:02:41;11.18;;;8.50;;
21903;SDS011;11116;51.554;7.812;2022-08-01T07:05:08;9.20;;;8.23;;
21903;SDS011;11116;51.554;7.812;2022-08-01T07:07:35;10.20;;;9.02;;
21903;SDS011;11116;51.554;7.812;2022-08-01T07:10:03;12.05;;;8.98;;
21903;SDS011;11116;51.554;7.812;2022-08-01T07:12:30;8.75;;;7.85;;
21903;SDS011;11116;51.554;7.812;2022-08-01T07:14:59;8.23;;;6.85;;
21903;SDS011;11116;51.554;7.812;2022-08-01T07:17:26;9.07;;;7.85;;
21903;SDS011;11116;51.554;7.812;2022-08-01T07:19:53;8.18;;;7.20;;
21903;SDS011;11116;51.554;7.812;2022-08-01T07:22:20;10.48;;;7.70;;
21903;SDS011;11116;51.554;7.812;2022-08-01T07:24:47;8.93;;;7.22;;
21903;SDS011;11116;51.554;7.812;2022-08-01T07:27:14;14.75;;;8.52;;
21903;SDS011;11116;51.554;7.812;2022-08-01T07:29:41;10.43;;;5.80;;
21903;SDS011;11116;51.554;7.812;2022-08-01T07:32:10;7.05;;;6.10;;
21903;SDS011;11116;51.554;7.812;2022-08-01T07:34:37;7.10;;;5.57;;
21903;SDS011;11116;51.554;7.812;2022-08-01T07:37:04;5.93;;;4.57;;
21903;SDS011;11116;51.554;7.812;2022-08-01T07:39:30;6.38;;;5.00;;
21903;SDS011;11116;51.554;7.812;2022-08-01T07:41:57;7.22;;;5.55;;
21903;SDS011;11116;51.554;7.812;2022-08-01T07:44:24;6.65;;;5.95;;
21903;SDS011;11116;51.554;7.812;2022-08-01T07:46:51;7.43;;;6.63;;
21903;SDS011;11116;51.554;7.812;2022-08-01T07:49:20;6.32;;;5.55;;
21903;SDS011;11116;51.554;7.812;2022-08-01T07:51:47;6.38;;;5.78;;
21903;SDS011;11116;51.554;7.812;2022-08-01T07:54:14;6.95;;;6.25;;
21903;SDS011;11116;51.554;7.812;2022-08-01T07:56:41;6.82;;;6.13;;
21903;SDS011;11116;51.554;7.812;2022-08-01T07:59:08;7.03;;;6.00;;
21903;SDS011;11116;51.554;7.812;2022-08-01T08:01:35;7.25;;;5.68;;
21903;SDS011;11116;51.554;7.812;2022-08-01T08:04:02;5.40;;;4.90;;
21903;SDS011;11116;51.554;7.812;2022-08-01T08:06:30;6.03;;;5.43;;
21903;SDS011;11116;51.554;7.812;2022-08-01T08:08:57;6.47;;;4.68;;
21903;SDS011;11116;51.554;7.812;2022-08-01T08:11:24;5.32;;;4.65;;
21903;SDS011;11116;51.554;7.812;2022-08-01T08:13:51;5.78;;;5.18;;
21903;SDS011;11116;51.554;7.812;2022-08-01T08:16:18;5.63;;;4.97;;
21903;SDS011;11116;51.554;7.812;2022-08-01T08:18:46;5.70;;;4.65;;
21903;SDS011;11116;51.554;7.812;2022-08-01T08:21:12;6.45;;;4.50;;
21903;SDS011;11116;51.554;7.812;2022-08-01T08:23:41;4.38;;;3.45;;
21903;SDS011;11116;51.554;7.812;2022-08-01T08:26:25;3.78;;;3.22;;
21903;SDS011;11116;51.554;7.812;2022-08-01T08:28:52;3.78;;;3.28;;
21903;SDS011;11116;51.554;7.812;2022-08-01T08:31:19;4.00;;;3.30;;
21903;SDS011;11116;51.554;7.812;2022-08-01T08:33:46;3.65;;;3.28;;
21903;SDS011;11116;51.554;7.812;2022-08-01T08:36:13;3.53;;;3.00;;
21903;SDS011;11116;51.554;7.812;2022-08-01T08:38:41;3.33;;;2.53;;
21903;SDS011;11116;51.554;7.812;2022-08-01T08:41:08;4.03;;;3.30;;
21903;SDS011;11116;51.554;7.812;2022-08-01T08:43:36;3.70;;;3.40;;
21903;SDS011;11116;51.554;7.812;2022-08-01T08:46:03;3.47;;;3.17;;
21903;SDS011;11116;51.554;7.812;2022-08-01T08:48:34;3.78;;;3.20;;
21903;SDS011;11116;51.554;7.812;2022-08-01T08:51:03;3.90;;;3.50;;
21903;SDS011;11116;51.554;7.812;2022-08-01T08:53:30;3.80;;;3.50;;
21903;SDS011;11116;51.554;7.812;2022-08-01T08:56:01;8.30;;;3.22;;
21903;SDS011;11116;51.554;7.812;2022-08-01T08:58:29;7.55;;;3.95;;
21903;SDS011;11116;51.554;7.812;2022-08-01T09:00:59;4.43;;;4.03;;
21903;SDS011;11116;51.554;7.812;2022-08-01T09:03:26;5.25;;;4.32;;
21903;SDS011;11116;51.554;7.812;2022-08-01T09:05:53;5.80;;;4.25;;
21903;SDS011;11116;51.554;7.812;2022-08-01T09:08:20;4.30;;;3.90;;
21903;SDS011;11116;51.554;7.812;2022-08-01T09:10:47;5.07;;;4.65;;
21903;SDS011;11116;51.554;7.812;2022-08-01T09:13:15;6.53;;;4.50;;
21903;SDS011;11116;51.554;7.812;2022-08-01T09:15:43;4.63;;;4.13;;
21903;SDS011;11116;51.554;7.812;2022-08-01T09:18:27;4.47;;;4.05;;
21903;SDS011;11116;51.554;7.812;2022-08-01T09:21:09;3.92;;;3.58;;
21903;SDS011;11116;51.554;7.812;2022-08-01T09:23:37;4.72;;;4.15;;
21903;SDS011;11116;51.554;7.812;2022-08-01T09:26:07;3.50;;;3.20;;
21903;SDS011;11116;51.554;7.812;2022-08-01T09:28:36;5.88;;;3.92;;
21903;SDS011;11116;51.554;7.812;2022-08-01T09:31:08;4.68;;;3.50;;
21903;SDS011;11116;51.554;7.812;2022-08-01T09:33:49;5.18;;;4.32;;
21903;SDS011;11116;51.554;7.812;2022-08-01T09:36:18;4.85;;;4.13;;
21903;SDS011;11116;51.554;7.812;2022-08-01T09:38:45;2.63;;;2.05;;
21903;SDS011;11116;51.554;7.812;2022-08-01T09:41:12;2.78;;;1.85;;
21903;SDS011;11116;51.554;7.812;2022-08-01T09:43:41;3.60;;;2.45;;
21903;SDS011;11116;51.554;7.812;2022-08-01T09:46:15;3.40;;;3.10;;
21903;SDS011;11116;51.554;7.812;2022-08-01T09:48:59;3.95;;;3.00;;
21903;SDS011;11116;51.554;7.812;2022-08-01T09:51:27;3.55;;;3.25;;
21903;SDS011;11116;51.554;7.812;2022-08-01T09:53:55;3.85;;;2.83;;
21903;SDS011;11116;51.554;7.812;2022-08-01T09:56:22;5.78;;;3.70;;
21903;SDS011;11116;51.554;7.812;2022-08-01T09:58:55;4.32;;;2.80;;
21903;SDS011;11116;51.554;7.812;2022-08-01T10:01:23;2.95;;;2.75;;
21903;SDS011;11116;51.554;7.812;2022-08-01T10:04:03;2.78;;;2.58;;
21903;SDS011;11116;51.554;7.812;2022-08-01T10:06:36;2.97;;;2.72;;
21903;SDS011;11116;51.554;7.812;2022-08-01T10:09:03;2.97;;;2.70;;
21903;SDS011;11116;51.554;7.812;2022-08-01T10:11:30;4.03;;;2.78;;
21903;SDS011;11116;51.554;7.812;2022-08-01T10:14:00;3.08;;;2.80;;
21903;SDS011;11116;51.554;7.812;2022-08-01T10:16:28;3.15;;;2.85;;
21903;SDS011;11116;51.554;7.812;2022-08-01T10:18:56;2.25;;;2.15;;
21903;SDS011;11116;51.554;7.812;2022-08-01T10:21:24;2.63;;;2.00;;
21903;SDS011;11116;51.554;7.812;2022-08-01T10:23:54;2.10;;;2.00;;
21903;SDS011;11116;51.554;7.812;2022-08-01T10:26:24;2.58;;;2.10;;
21903;SDS011;11116;51.554;7.812;2022-08-01T10:28:52;2.40;;;2.17;;
21903;SDS011;11116;51.554;7.812;2022-08-01T10:31:21;2.90;;;1.70;;
21903;SDS011;11116;51.554;7.812;2022-08-01T10:33:49;1.92;;;1.70;;
21903;SDS011;11116;51.554;7.812;2022-08-01T10:36:17;2.08;;;1.88;;
21903;SDS011;11116;51.554;7.812;2022-08-01T10:38:46;2.53;;;1.95;;
21903;SDS011;11116;51.554;7.812;2022-08-01T10:41:13;2.17;;;1.65;;
21903;SDS011;11116;51.554;7.812;2022-08-01T10:43:42;2.10;;;1.88;;
21903;SDS011;11116;51.554;7.812;2022-08-01T10:46:09;1.88;;;1.77;;
21903;SDS011;11116;51.554;7.812;2022-08-01T10:48:41;2.45;;;1.70;;
21903;SDS011;11116;51.554;7.812;2022-08-01T10:51:13;2.55;;;2.35;;
21903;SDS011;11116;51.554;7.812;2022-08-01T10:53:45;2.10;;;2.00;;
21903;SDS011;11116;51.554;7.812;2022-08-01T10:56:13;1.60;;;1.42;;
21903;SDS011;11116;51.554;7.812;2022-08-01T10:58:42;1.23;;;1.13;;
21903;SDS011;11116;51.554;7.812;2022-08-01T11:04:02;1.38;;;1.25;;
21903;SDS011;11116;51.554;7.812;2022-08-01T11:06:41;1.08;;;0.90;;
21903;SDS011;11116;51.554;7.812;2022-08-01T11:09:20;0.70;;;0.70;;
21903;SDS011;11116;51.554;7.812;2022-08-01T11:12:01;1.15;;;0.70;;
21903;SDS011;11116;51.554;7.812;2022-08-01T11:14:31;1.33;;;0.70;;
21903;SDS011;11116;51.554;7.812;2022-08-01T11:20:09;0.50;;;0.50;;
21903;SDS011;11116;51.554;7.812;2022-08-01T11:26:08;2.58;;;0.47;;
21903;SDS011;11116;51.554;7.812;2022-08-01T11:28:39;2.60;;;0.77;;
21903;SDS011;11116;51.554;7.812;2022-08-01T11:31:27;0.60;;;0.60;;
21903;SDS011;11116;51.554;7.812;2022-08-01T11:33:55;1.02;;;0.70;;
21903;SDS011;11116;51.554;7.812;2022-08-01T11:36:24;1.05;;;0.80;;
21903;SDS011;11116;51.554;7.812;2022-08-01T11:41:38;0.52;;;0.52;;
21903;SDS011;11116;51.554;7.812;2022-08-01T11:44:06;1.95;;;0.60;;
21903;SDS011;11116;51.554;7.812;2022-08-01T11:46:48;0.57;;;0.57;;
21903;SDS011;11116;51.554;7.812;2022-08-01T11:49:24;0.50;;;0.50;;
21903;SDS011;11116;51.554;7.812;2022-08-01T11:52:02;0.63;;;0.63;;
21903;SDS011;11116;51.554;7.812;2022-08-01T11:54:32;0.57;;;0.57;;
21903;SDS011;11116;51.554;7.812;2022-08-01T11:57:02;0.57;;;0.57;;
21903;SDS011;11116;51.554;7.812;2022-08-01T11:59:35;0.63;;;0.63;;
21903;SDS011;11116;51.554;7.812;2022-08-01T12:02:03;0.50;;;0.50;;
21903;SDS011;11116;51.554;7.812;2022-08-01T12:07:18;0.63;;;0.63;;
21903;SDS011;11116;51.554;7.812;2022-08-01T12:09:46;0.60;;;0.60;;
21903;SDS011;11116;51.554;7.812;2022-08-01T12:12:16;0.50;;;0.50;;
21903;SDS011;11116;51.554;7.812;2022-08-01T12:14:44;4.90;;;0.75;;
21903;SDS011;11116;51.554;7.812;2022-08-01T12:17:12;3.40;;;0.70;;
21903;SDS011;11116;51.554;7.812;2022-08-01T12:19:39;11.27;;;2.40;;
21903;SDS011;11116;51.554;7.812;2022-08-01T12:22:08;0.85;;;0.80;;
21903;SDS011;11116;51.554;7.812;2022-08-01T12:24:38;6.70;;;1.60;;
21903;SDS011;11116;51.554;7.812;2022-08-01T12:27:06;2.33;;;0.90;;
21903;SDS011;11116;51.554;7.812;2022-08-01T12:29:35;1.25;;;0.77;;
21903;SDS011;11116;51.554;7.812;2022-08-01T12:32:03;0.68;;;0.50;;
21903;SDS011;11116;51.554;7.812;2022-08-01T12:34:46;1.73;;;0.93;;
21903;SDS011;11116;51.554;7.812;2022-08-01T12:37:13;0.52;;;0.50;;
21903;SDS011;11116;51.554;7.812;2022-08-01T12:39:42;2.05;;;0.80;;
21903;SDS011;11116;51.554;7.812;2022-08-01T12:42:10;0.93;;;0.60;;
21903;SDS011;11116;51.554;7.812;2022-08-01T12:44:38;0.93;;;0.70;;
21903;SDS011;11116;51.554;7.812;2022-08-01T12:47:06;0.50;;;0.50;;
21903;SDS011;11116;51.554;7.812;2022-08-01T12:49:34;1.77;;;0.60;;
21903;SDS011;11116;51.554;7.812;2022-08-01T12:52:03;0.73;;;0.68;;
21903;SDS011;11116;51.554;7.812;2022-08-01T12:54:31;4.72;;;0.95;;
21903;SDS011;11116;51.554;7.812;2022-08-01T12:57:31;0.57;;;0.57;;
21903;SDS011;11116;51.554;7.812;2022-08-01T13:00:09;0.63;;;0.60;;
21903;SDS011;11116;51.554;7.812;2022-08-01T13:02:41;0.63;;;0.63;;
21903;SDS011;11116;51.554;7.812;2022-08-01T13:05:09;0.40;;;0.40;;
21903;SDS011;11116;51.554;7.812;2022-08-01T13:07:38;0.50;;;0.50;;
21903;SDS011;11116;51.554;7.812;2022-08-01T13:10:08;0.98;;;0.50;;
21903;SDS011;11116;51.554;7.812;2022-08-01T13:12:35;0.50;;;0.50;;
21903;SDS011;11116;51.554;7.812;2022-08-01T13:15:19;0.75;;;0.68;;
21903;SDS011;11116;51.554;7.812;2022-08-01T13:17:49;0.77;;;0.55;;
21903;SDS011;11116;51.554;7.812;2022-08-01T13:20:23;0.68;;;0.57;;
21903;SDS011;11116;51.554;7.812;2022-08-01T13:22:55;0.93;;;0.50;;
21903;SDS011;11116;51.554;7.812;2022-08-01T13:25:45;3.20;;;0.60;;
21903;SDS011;11116;51.554;7.812;2022-08-01T13:28:13;1.95;;;0.60;;
21903;SDS011;11116;51.554;7.812;2022-08-01T13:30:50;0.73;;;0.63;;
21903;SDS011;11116;51.554;7.812;2022-08-01T13:33:17;0.75;;;0.73;;
21903;SDS011;11116;51.554;7.812;2022-08-01T13:35:44;1.10;;;0.68;;
21903;SDS011;11116;51.554;7.812;2022-08-01T13:38:12;0.60;;;0.60;;
21903;SDS011;11116;51.554;7.812;2022-08-01T13:40:41;0.77;;;0.70;;
21903;SDS011;11116;51.554;7.812;2022-08-01T13:43:08;2.00;;;0.68;;
21903;SDS011;11116;51.554;7.812;2022-08-01T13:45:35;0.80;;;0.60;;
21903;SDS011;11116;51.554;7.812;2022-08-01T13:48:04;1.48;;;0.70;;
21903;SDS011;11116;51.554;7.812;2022-08-01T13:50:31;1.40;;;0.80;;
21903;SDS011;11116;51.554;7.812;2022-08-01T13:52:58;0.70;;;0.70;;
21903;SDS011;11116;51.554;7.812;2022-08-01T13:55:25;2.03;;;1.17;;
21903;SDS011;11116;51.554;7.812;2022-08-01T13:57:53;1.30;;;0.95;;
21903;SDS011;11116;51.554;7.812;2022-08-01T14:00:20;1.67;;;0.70;;
21903;SDS011;11116;51.554;7.812;2022-08-01T14:02:47;3.33;;;1.55;;
21903;SDS011;11116;51.554;7.812;2022-08-01T14:05:14;1.15;;;0.90;;
21903;SDS011;11116;51.554;7.812;2022-08-01T14:07:41;1.27;;;0.88;;
21903;SDS011;11116;51.554;7.812;2022-08-01T14:10:09;1.15;;;0.68;;
21903;SDS011;11116;51.554;7.812;2022-08-01T14:12:36;1.02;;;0.80;;
21903;SDS011;11116;51.554;7.812;2022-08-01T14:15:06;2.67;;;0.90;;
21903;SDS011;11116;51.554;7.812;2022-08-01T14:17:34;0.80;;;0.80;;
21903;SDS011;11116;51.554;7.812;2022-08-01T14:20:01;3.13;;;1.10;;
21903;SDS011;11116;51.554;7.812;2022-08-01T14:22:29;0.80;;;0.80;;
21903;SDS011;11116;51.554;7.812;2022-08-01T14:24:56;1.15;;;0.93;;
21903;SDS011;11116;51.554;7.812;2022-08-01T14:27:24;1.73;;;1.25;;
21903;SDS011;11116;51.554;7.812;2022-08-01T14:29:51;2.22;;;1.30;;
21903;SDS011;11116;51.554;7.812;2022-08-01T14:32:19;1.30;;;0.80;;
21903;SDS011;11116;51.554;7.812;2022-08-01T14:34:46;1.95;;;1.27;;
21903;SDS011;11116;51.554;7.812;2022-08-01T14:37:13;1.45;;;0.98;;
21903;SDS011;11116;51.554;7.812;2022-08-01T14:39:40;1.08;;;1.00;;
21903;SDS011;11116;51.554;7.812;2022-08-01T14:42:07;2.08;;;1.05;;
21903;SDS011;11116;51.554;7.812;2022-08-01T14:44:34;1.38;;;1.10;;
21903;SDS011;11116;51.554;7.812;2022-08-01T14:47:01;0.80;;;0.80;;
21903;SDS011;11116;51.554;7.812;2022-08-01T14:49:29;1.17;;;0.82;;
21903;SDS011;11116;51.554;7.812;2022-08-01T14:51:56;4.22;;;1.10;;
21903;SDS011;11116;51.554;7.812;2022-08-01T14:54:23;1.30;;;1.10;;
21903;SDS011;11116;51.554;7.812;2022-08-01T14:56:50;1.27;;;1.17;;
21903;SDS011;11116;51.554;7.812;2022-08-01T14:59:18;1.30;;;1.10;;
21903;SDS011;11116;51.554;7.812;2022-08-01T15:01:45;1.08;;;0.98;;
21903;SDS011;11116;51.554;7.812;2022-08-01T15:04:12;4.00;;;1.05;;